LBA weather

Leeds Bradford Airport
Leeds, England, United Kingdom

Public forecast

Using degrees Celsius for public forecast. Weather courtesy of forecast.io.

Current aviation weather report (METAR) for Leeds Bradford Airport

Retrieved 2019/10/19 00:20 UTC (16 minutes ago):

EGNM 190020Z 22004KT 190V250 9999 FEW007 SCT012 09/07 Q0993

Aviation forecast (TAF) for Leeds Bradford Airport

Retrieved 2019-10-19 00:00 UTC (36 minutes ago):

TAF EGNM 182300Z 1900/1924 18006KT 9999 FEW014 SCT025 TEMPO 1900/1909 BKN014 PROB30 TEMPO 1900/1909 3000 SHRA BR BKN006 TEMPO 1909/1919 6000 SHRA PROB30 TEMPO 1912/1919 4000 +SHRA BKN009CB BECMG 1915/1918 36010KT